sensor_id;sensor_type;location;lat;lon;timestamp;pressure;altitude;pressure_sealevel;temperature;humidity
56568;BME280;42456;49.956;20.004;2023-02-18T00:00:30;97959.25;;;9.70;83.33
56568;BME280;42456;49.956;20.004;2023-02-18T00:02:57;97946.81;;;9.67;83.43
56568;BME280;42456;49.956;20.004;2023-02-18T00:05:24;97954.97;;;9.66;83.43
56568;BME280;42456;49.956;20.004;2023-02-18T00:07:50;97951.16;;;9.64;83.52
56568;BME280;42456;49.956;20.004;2023-02-18T00:10:17;97946.61;;;9.64;83.32
56568;BME280;42456;49.956;20.004;2023-02-18T00:12:44;97946.84;;;9.64;83.23
56568;BME280;42456;49.956;20.004;2023-02-18T00:15:12;97949.59;;;9.63;83.28
56568;BME280;42456;49.956;20.004;2023-02-18T00:17:39;97950.69;;;9.64;83.22
56568;BME280;42456;49.956;20.004;2023-02-18T00:20:07;97958.55;;;9.65;83.08
56568;BME280;42456;49.956;20.004;2023-02-18T00:22:34;97962.81;;;9.67;83.18
56568;BME280;42456;49.956;20.004;2023-02-18T00:25:01;97952.56;;;9.69;82.92
56568;BME280;42456;49.956;20.004;2023-02-18T00:27:28;97950.70;;;9.71;82.90
56568;BME280;42456;49.956;20.004;2023-02-18T00:29:57;97950.30;;;9.72;82.65
56568;BME280;42456;49.956;20.004;2023-02-18T00:32:24;97942.16;;;9.74;82.58
56568;BME280;42456;49.956;20.004;2023-02-18T00:34:51;97937.16;;;9.76;82.65
56568;BME280;42456;49.956;20.004;2023-02-18T00:37:18;97935.49;;;9.77;82.61
56568;BME280;42456;49.956;20.004;2023-02-18T00:39:45;97934.69;;;9.76;82.50
56568;BME280;42456;49.956;20.004;2023-02-18T00:42:12;97935.01;;;9.74;82.26
56568;BME280;42456;49.956;20.004;2023-02-18T00:44:40;97946.10;;;9.75;82.56
56568;BME280;42456;49.956;20.004;2023-02-18T00:47:06;97946.46;;;9.77;82.29
56568;BME280;42456;49.956;20.004;2023-02-18T00:49:34;97935.37;;;9.77;82.29
56568;BME280;42456;49.956;20.004;2023-02-18T00:52:01;97938.94;;;9.78;82.01
56568;BME280;42456;49.956;20.004;2023-02-18T00:54:28;97942.83;;;9.80;81.83
56568;BME280;42456;49.956;20.004;2023-02-18T00:56:56;97935.41;;;9.83;81.60
56568;BME280;42456;49.956;20.004;2023-02-18T00:59:22;97939.78;;;9.85;81.35
56568;BME280;42456;49.956;20.004;2023-02-18T01:01:49;97936.33;;;9.88;81.39
56568;BME280;42456;49.956;20.004;2023-02-18T01:04:17;97938.18;;;9.90;81.27
56568;BME280;42456;49.956;20.004;2023-02-18T01:06:44;97942.61;;;9.92;81.06
56568;BME280;42456;49.956;20.004;2023-02-18T01:09:11;97944.81;;;9.93;80.89
56568;BME280;42456;49.956;20.004;2023-02-18T01:11:38;97948.11;;;9.95;80.92
56568;BME280;42456;49.956;20.004;2023-02-18T01:14:05;97951.15;;;9.97;80.90
56568;BME280;42456;49.956;20.004;2023-02-18T01:16:31;97956.30;;;9.99;80.64
56568;BME280;42456;49.956;20.004;2023-02-18T01:18:58;97955.67;;;10.01;80.48
56568;BME280;42456;49.956;20.004;2023-02-18T01:21:25;97962.91;;;10.02;80.54
56568;BME280;42456;49.956;20.004;2023-02-18T01:23:52;97966.33;;;10.03;80.37
56568;BME280;42456;49.956;20.004;2023-02-18T01:26:19;97977.82;;;10.04;80.31
56568;BME280;42456;49.956;20.004;2023-02-18T01:28:46;98001.02;;;10.04;80.34
56568;BME280;42456;49.956;20.004;2023-02-18T01:31:13;98032.29;;;10.03;80.79
56568;BME280;42456;49.956;20.004;2023-02-18T01:33:41;98038.52;;;9.99;81.18
56568;BME280;42456;49.956;20.004;2023-02-18T01:36:09;98035.97;;;9.95;80.68
56568;BME280;42456;49.956;20.004;2023-02-18T01:38:37;98038.20;;;9.89;80.69
56568;BME280;42456;49.956;20.004;2023-02-18T01:41:05;98044.73;;;9.82;80.57
56568;BME280;42456;49.956;20.004;2023-02-18T01:43:33;98044.56;;;9.76;79.96
56568;BME280;42456;49.956;20.004;2023-02-18T01:51:21;98059.25;;;9.52;78.66
56568;BME280;42456;49.956;20.004;2023-02-18T01:56:23;98051.31;;;9.33;78.98
56568;BME280;42456;49.956;20.004;2023-02-18T01:58:53;98051.76;;;9.24;78.98
56568;BME280;42456;49.956;20.004;2023-02-18T02:01:20;98048.56;;;9.17;79.37
56568;BME280;42456;49.956;20.004;2023-02-18T02:03:47;98055.23;;;9.10;79.15
56568;BME280;42456;49.956;20.004;2023-02-18T02:06:19;98057.64;;;9.03;79.29
56568;BME280;42456;49.956;20.004;2023-02-18T02:08:48;98055.71;;;8.97;79.35
56568;BME280;42456;49.956;20.004;2023-02-18T02:17:05;98062.46;;;8.80;79.10
56568;BME280;42456;49.956;20.004;2023-02-18T02:23:18;98062.00;;;8.71;79.01
56568;BME280;42456;49.956;20.004;2023-02-18T02:25:15;98061.36;;;8.66;78.92
56568;BME280;42456;49.956;20.004;2023-02-18T02:30:41;98056.40;;;8.61;78.55
56568;BME280;42456;49.956;20.004;2023-02-18T02:35:59;98055.63;;;8.55;78.33
56568;BME280;42456;49.956;20.004;2023-02-18T02:43:47;98061.85;;;8.50;77.81
56568;BME280;42456;49.956;20.004;2023-02-18T02:46:40;98058.23;;;8.48;77.44
56568;BME280;42456;49.956;20.004;2023-02-18T02:54:22;98070.22;;;8.36;76.89
56568;BME280;42456;49.956;20.004;2023-02-18T02:56:49;98076.25;;;8.33;76.99
56568;BME280;42456;49.956;20.004;2023-02-18T02:59:23;98076.76;;;8.28;76.80
56568;BME280;42456;49.956;20.004;2023-02-18T03:15:55;98087.17;;;8.19;77.32
56568;BME280;42456;49.956;20.004;2023-02-18T03:18:39;98089.48;;;8.17;76.97
56568;BME280;42456;49.956;20.004;2023-02-18T03:21:28;98095.66;;;8.16;77.34
56568;BME280;42456;49.956;20.004;2023-02-18T03:24:45;98100.83;;;8.16;77.38
56568;BME280;42456;49.956;20.004;2023-02-18T03:29:52;98113.30;;;8.12;77.64
56568;BME280;42456;49.956;20.004;2023-02-18T03:32:23;98114.46;;;8.10;77.71
56568;BME280;42456;49.956;20.004;2023-02-18T03:34:56;98114.09;;;8.04;77.62
56568;BME280;42456;49.956;20.004;2023-02-18T03:37:26;98119.39;;;8.00;77.51
56568;BME280;42456;49.956;20.004;2023-02-18T03:39:55;98117.65;;;7.95;77.90
56568;BME280;42456;49.956;20.004;2023-02-18T03:42:26;98125.63;;;7.92;78.11
56568;BME280;42456;49.956;20.004;2023-02-18T03:44:53;98125.68;;;7.88;78.22
56568;BME280;42456;49.956;20.004;2023-02-18T03:47:20;98120.39;;;7.86;78.14
56568;BME280;42456;49.956;20.004;2023-02-18T03:49:47;98125.64;;;7.84;78.46
56568;BME280;42456;49.956;20.004;2023-02-18T03:52:14;98128.29;;;7.82;78.34
56568;BME280;42456;49.956;20.004;2023-02-18T03:54:41;98132.14;;;7.79;78.20
56568;BME280;42456;49.956;20.004;2023-02-18T03:57:08;98136.45;;;7.76;78.20
56568;BME280;42456;49.956;20.004;2023-02-18T03:59:35;98133.64;;;7.73;78.14
56568;BME280;42456;49.956;20.004;2023-02-18T04:02:02;98134.23;;;7.71;77.99
56568;BME280;42456;49.956;20.004;2023-02-18T04:04:29;98130.40;;;7.69;78.38
56568;BME280;42456;49.956;20.004;2023-02-18T04:06:55;98139.65;;;7.67;78.10
56568;BME280;42456;49.956;20.004;2023-02-18T04:09:22;98141.95;;;7.66;78.43
56568;BME280;42456;49.956;20.004;2023-02-18T04:11:49;98140.62;;;7.63;78.74
56568;BME280;42456;49.956;20.004;2023-02-18T04:14:16;98138.45;;;7.61;78.20
56568;BME280;42456;49.956;20.004;2023-02-18T04:16:43;98141.40;;;7.59;78.34
56568;BME280;42456;49.956;20.004;2023-02-18T04:19:10;98142.56;;;7.56;78.65
56568;BME280;42456;49.956;20.004;2023-02-18T04:21:36;98142.23;;;7.52;78.64
56568;BME280;42456;49.956;20.004;2023-02-18T04:24:03;98131.75;;;7.49;78.68
56568;BME280;42456;49.956;20.004;2023-02-18T04:26:30;98135.66;;;7.44;78.37
56568;BME280;42456;49.956;20.004;2023-02-18T04:28:57;98139.34;;;7.41;77.96
56568;BME280;42456;49.956;20.004;2023-02-18T04:31:24;98134.68;;;7.38;77.66
56568;BME280;42456;49.956;20.004;2023-02-18T04:33:51;98135.55;;;7.35;77.50
56568;BME280;42456;49.956;20.004;2023-02-18T04:36:18;98143.01;;;7.33;77.44
56568;BME280;42456;49.956;20.004;2023-02-18T04:38:45;98144.56;;;7.31;77.36
56568;BME280;42456;49.956;20.004;2023-02-18T04:41:11;98146.98;;;7.28;76.95
56568;BME280;42456;49.956;20.004;2023-02-18T04:43:38;98143.36;;;7.26;77.60
56568;BME280;42456;49.956;20.004;2023-02-18T04:46:05;98139.51;;;7.24;77.00
56568;BME280;42456;49.956;20.004;2023-02-18T04:48:32;98141.77;;;7.22;76.56
56568;BME280;42456;49.956;20.004;2023-02-18T04:51:01;98145.53;;;7.19;76.37
56568;BME280;42456;49.956;20.004;2023-02-18T04:53:28;98142.88;;;7.16;76.27
56568;BME280;42456;49.956;20.004;2023-02-18T04:55:54;98142.88;;;7.14;76.68
56568;BME280;42456;49.956;20.004;2023-02-18T04:58:21;98148.94;;;7.12;76.74
56568;BME280;42456;49.956;20.004;2023-02-18T05:00:49;98148.94;;;7.10;76.07
56568;BME280;42456;49.956;20.004;2023-02-18T05:03:16;98153.36;;;7.09;75.32
56568;BME280;42456;49.956;20.004;2023-02-18T05:05:42;98157.54;;;7.07;74.23
56568;BME280;42456;49.956;20.004;2023-02-18T05:08:09;98153.81;;;7.04;72.95
56568;BME280;42456;49.956;20.004;2023-02-18T05:10:37;98159.09;;;7.01;72.56
56568;BME280;42456;49.956;20.004;2023-02-18T05:13:04;98157.92;;;6.96;71.50
56568;BME280;42456;49.956;20.004;2023-02-18T05:15:31;98157.81;;;6.92;70.57
56568;BME280;42456;49.956;20.004;2023-02-18T05:17:58;98159.96;;;6.88;70.21
56568;BME280;42456;49.956;20.004;2023-02-18T05:20:25;98160.09;;;6.83;69.71
56568;BME280;42456;49.956;20.004;2023-02-18T05:22:52;98159.79;;;6.78;69.63
56568;BME280;42456;49.956;20.004;2023-02-18T05:25:19;98160.67;;;6.73;68.96
56568;BME280;42456;49.956;20.004;2023-02-18T05:27:46;98168.50;;;6.68;68.91
56568;BME280;42456;49.956;20.004;2023-02-18T05:30:13;98170.31;;;6.62;68.50
56568;BME280;42456;49.956;20.004;2023-02-18T05:32:40;98171.06;;;6.57;68.11
56568;BME280;42456;49.956;20.004;2023-02-18T05:35:07;98169.90;;;6.52;68.18
56568;BME280;42456;49.956;20.004;2023-02-18T05:37:34;98171.60;;;6.46;68.32
56568;BME280;42456;49.956;20.004;2023-02-18T05:40:02;98171.05;;;6.42;68.12
56568;BME280;42456;49.956;20.004;2023-02-18T05:42:29;98176.95;;;6.38;67.91
56568;BME280;42456;49.956;20.004;2023-02-18T05:44:56;98182.22;;;6.33;68.51
56568;BME280;42456;49.956;20.004;2023-02-18T05:47:23;98178.63;;;6.30;67.99
56568;BME280;42456;49.956;20.004;2023-02-18T05:49:50;98175.48;;;6.27;67.63
56568;BME280;42456;49.956;20.004;2023-02-18T05:52:16;98185.97;;;6.26;65.60
56568;BME280;42456;49.956;20.004;2023-02-18T05:54:43;98188.65;;;6.28;64.50
56568;BME280;42456;49.956;20.004;2023-02-18T05:57:13;98189.81;;;6.28;63.67
56568;BME280;42456;49.956;20.004;2023-02-18T05:59:40;98189.52;;;6.28;64.06
56568;BME280;42456;49.956;20.004;2023-02-18T06:02:07;98192.84;;;6.27;63.45
56568;BME280;42456;49.956;20.004;2023-02-18T06:04:34;98200.63;;;6.25;63.30
56568;BME280;42456;49.956;20.004;2023-02-18T06:07:00;98205.77;;;6.24;62.81
56568;BME280;42456;49.956;20.004;2023-02-18T06:09:27;98209.68;;;6.24;62.64
56568;BME280;42456;49.956;20.004;2023-02-18T06:11:54;98208.30;;;6.26;62.73
56568;BME280;42456;49.956;20.004;2023-02-18T06:14:21;98211.42;;;6.27;62.41
56568;BME280;42456;49.956;20.004;2023-02-18T06:16:48;98215.34;;;6.29;62.11
56568;BME280;42456;49.956;20.004;2023-02-18T06:19:14;98214.24;;;6.30;62.41
56568;BME280;42456;49.956;20.004;2023-02-18T06:21:41;98217.95;;;6.32;62.10
56568;BME280;42456;49.956;20.004;2023-02-18T06:24:08;98216.94;;;6.33;62.20
56568;BME280;42456;49.956;20.004;2023-02-18T06:26:35;98211.42;;;6.34;62.29
56568;BME280;42456;49.956;20.004;2023-02-18T06:29:02;98208.63;;;6.37;62.08
56568;BME280;42456;49.956;20.004;2023-02-18T06:31:29;98203.51;;;6.39;61.68
56568;BME280;42456;49.956;20.004;2023-02-18T06:33:56;98202.12;;;6.43;61.81
56568;BME280;42456;49.956;20.004;2023-02-18T06:36:23;98202.50;;;6.48;62.09
56568;BME280;42456;49.956;20.004;2023-02-18T06:38:50;98202.09;;;6.53;62.64
56568;BME280;42456;49.956;20.004;2023-02-18T06:41:17;98202.86;;;6.59;62.69
56568;BME280;42456;49.956;20.004;2023-02-18T06:43:44;98207.27;;;6.63;62.67
56568;BME280;42456;49.956;20.004;2023-02-18T06:46:10;98213.03;;;6.65;62.32
56568;BME280;42456;49.956;20.004;2023-02-18T06:48:37;98215.75;;;6.68;61.79
56568;BME280;42456;49.956;20.004;2023-02-18T06:51:04;98219.57;;;6.71;61.49
56568;BME280;42456;49.956;20.004;2023-02-18T06:53:31;98215.42;;;6.74;60.86
56568;BME280;42456;49.956;20.004;2023-02-18T06:55:58;98215.30;;;6.81;60.31
56568;BME280;42456;49.956;20.004;2023-02-18T06:58:25;98220.48;;;6.88;59.80
56568;BME280;42456;49.956;20.004;2023-02-18T07:00:51;98223.50;;;6.95;59.61
56568;BME280;42456;49.956;20.004;2023-02-18T07:03:18;98219.14;;;7.02;59.98
56568;BME280;42456;49.956;20.004;2023-02-18T07:05:46;98224.23;;;7.09;60.14
56568;BME280;42456;49.956;20.004;2023-02-18T07:08:12;98230.58;;;7.17;60.24
56568;BME280;42456;49.956;20.004;2023-02-18T07:10:40;98227.15;;;7.24;58.71
56568;BME280;42456;49.956;20.004;2023-02-18T07:13:07;98224.27;;;7.31;58.62
56568;BME280;42456;49.956;20.004;2023-02-18T07:15:34;98227.68;;;7.36;58.40
56568;BME280;42456;49.956;20.004;2023-02-18T07:18:01;98224.09;;;7.42;58.20
56568;BME280;42456;49.956;20.004;2023-02-18T07:20:27;98226.70;;;7.50;58.19
56568;BME280;42456;49.956;20.004;2023-02-18T07:22:55;98229.95;;;7.60;57.91
56568;BME280;42456;49.956;20.004;2023-02-18T07:25:22;98234.76;;;7.68;57.97
56568;BME280;42456;49.956;20.004;2023-02-18T07:27:49;98231.33;;;7.74;57.19
56568;BME280;42456;49.956;20.004;2023-02-18T07:30:18;98228.95;;;7.78;57.78
56568;BME280;42456;49.956;20.004;2023-02-18T07:32:45;98226.94;;;7.81;57.77
56568;BME280;42456;49.956;20.004;2023-02-18T07:35:13;98221.27;;;7.84;57.77
56568;BME280;42456;49.956;20.004;2023-02-18T07:37:47;98220.05;;;7.86;58.34
56568;BME280;42456;49.956;20.004;2023-02-18T07:40:17;98219.55;;;7.87;58.33
56568;BME280;42456;49.956;20.004;2023-02-18T07:42:45;98218.29;;;7.88;58.28
56568;BME280;42456;49.956;20.004;2023-02-18T07:45:12;98217.56;;;7.89;57.93
56568;BME280;42456;49.956;20.004;2023-02-18T07:47:40;98215.11;;;7.90;56.87
56568;BME280;42456;49.956;20.004;2023-02-18T07:50:08;98213.91;;;7.92;57.08
56568;BME280;42456;49.956;20.004;2023-02-18T07:52:35;98220.64;;;7.95;57.08
56568;BME280;42456;49.956;20.004;2023-02-18T07:55:02;98213.73;;;7.97;56.80
56568;BME280;42456;49.956;20.004;2023-02-18T07:57:29;98210.21;;;8.00;56.53
56568;BME280;42456;49.956;20.004;2023-02-18T07:59:56;98211.16;;;8.02;56.59
56568;BME280;42456;49.956;20.004;2023-02-18T08:02:23;98210.22;;;8.03;56.52
56568;BME280;42456;49.956;20.004;2023-02-18T08:04:50;98201.81;;;8.03;56.41
56568;BME280;42456;49.956;20.004;2023-02-18T08:07:19;98204.93;;;8.05;55.14
56568;BME280;42456;49.956;20.004;2023-02-18T08:09:47;98211.96;;;8.06;54.60
56568;BME280;42456;49.956;20.004;2023-02-18T08:12:16;98214.84;;;8.09;54.66
56568;BME280;42456;49.956;20.004;2023-02-18T08:14:43;98216.34;;;8.12;54.75
56568;BME280;42456;49.956;20.004;2023-02-18T08:17:10;98219.53;;;8.14;54.69
56568;BME280;42456;49.956;20.004;2023-02-18T08:19:37;98222.55;;;8.15;54.34
56568;BME280;42456;49.956;20.004;2023-02-18T08:22:03;98221.95;;;8.15;54.33
56568;BME280;42456;49.956;20.004;2023-02-18T08:24:30;98223.85;;;8.15;54.00
56568;BME280;42456;49.956;20.004;2023-02-18T08:26:58;98229.46;;;8.15;53.85
56568;BME280;42456;49.956;20.004;2023-02-18T08:29:28;98227.89;;;8.16;53.60
56568;BME280;42456;49.956;20.004;2023-02-18T08:31:55;98226.73;;;8.16;53.78
56568;BME280;42456;49.956;20.004;2023-02-18T08:34:24;98228.33;;;8.16;53.60
56568;BME280;42456;49.956;20.004;2023-02-18T08:36:51;98235.55;;;8.15;53.39
56568;BME280;42456;49.956;20.004;2023-02-18T08:39:18;98238.22;;;8.16;54.09
56568;BME280;42456;49.956;20.004;2023-02-18T08:41:45;98236.49;;;8.19;53.16
56568;BME280;42456;49.956;20.004;2023-02-18T08:44:11;98239.65;;;8.20;53.39
56568;BME280;42456;49.956;20.004;2023-02-18T08:46:38;98236.02;;;8.24;53.08
56568;BME280;42456;49.956;20.004;2023-02-18T08:49:05;98235.92;;;8.29;52.90
56568;BME280;42456;49.956;20.004;2023-02-18T08:51:32;98233.66;;;8.33;52.59
56568;BME280;42456;49.956;20.004;2023-02-18T08:53:59;98232.76;;;8.37;52.55
56568;BME280;42456;49.956;20.004;2023-02-18T08:56:26;98226.20;;;8.42;52.73
56568;BME280;42456;49.956;20.004;2023-02-18T08:58:53;98230.05;;;8.48;52.77
56568;BME280;42456;49.956;20.004;2023-02-18T09:01:20;98230.54;;;8.54;52.44
56568;BME280;42456;49.956;20.004;2023-02-18T09:03:48;98230.77;;;8.60;52.42
56568;BME280;42456;49.956;20.004;2023-02-18T09:06:15;98227.98;;;8.67;52.37
56568;BME280;42456;49.956;20.004;2023-02-18T09:08:42;98224.65;;;8.71;52.42
56568;BME280;42456;49.956;20.004;2023-02-18T09:11:09;98229.19;;;8.72;51.55
56568;BME280;42456;49.956;20.004;2023-02-18T09:13:37;98236.71;;;8.72;51.78
56568;BME280;42456;49.956;20.004;2023-02-18T09:16:07;98233.71;;;8.74;51.86
56568;BME280;42456;49.956;20.004;2023-02-18T09:18:35;98231.70;;;8.75;51.87
56568;BME280;42456;49.956;20.004;2023-02-18T09:21:03;98226.02;;;8.76;51.72
56568;BME280;42456;49.956;20.004;2023-02-18T09:23:37;98224.83;;;8.77;51.47
56568;BME280;42456;49.956;20.004;2023-02-18T09:26:07;98239.90;;;8.75;51.61
56568;BME280;42456;49.956;20.004;2023-02-18T09:28:34;98236.77;;;8.73;52.11
56568;BME280;42456;49.956;20.004;2023-02-18T09:31:13;98238.29;;;8.75;52.25
56568;BME280;42456;49.956;20.004;2023-02-18T09:33:45;98242.20;;;8.75;52.14
56568;BME280;42456;49.956;20.004;2023-02-18T09:36:13;98245.45;;;8.75;52.42
56568;BME280;42456;49.956;20.004;2023-02-18T09:38:40;98242.59;;;8.76;52.32
56568;BME280;42456;49.956;20.004;2023-02-18T09:41:37;98242.80;;;8.78;52.55
56568;BME280;42456;49.956;20.004;2023-02-18T09:44:12;98242.86;;;8.81;52.42
56568;BME280;42456;49.956;20.004;2023-02-18T09:49:17;98245.64;;;8.85;52.83
56568;BME280;42456;49.956;20.004;2023-02-18T09:51:45;98243.67;;;8.86;52.14
56568;BME280;42456;49.956;20.004;2023-02-18T09:54:17;98238.43;;;8.87;52.63
56568;BME280;42456;49.956;20.004;2023-02-18T09:56:46;98230.58;;;8.88;52.76
56568;BME280;42456;49.956;20.004;2023-02-18T09:59:19;98232.63;;;8.89;53.09
56568;BME280;42456;49.956;20.004;2023-02-18T10:01:50;98235.79;;;8.87;53.00
56568;BME280;42456;49.956;20.004;2023-02-18T10:04:18;98230.58;;;8.87;53.02
56568;BME280;42456;49.956;20.004;2023-02-18T10:06:53;98216.95;;;8.86;53.25
56568;BME280;42456;49.956;20.004;2023-02-18T10:09:27;98216.41;;;8.86;53.71
56568;BME280;42456;49.956;20.004;2023-02-18T10:12:12;98211.30;;;8.85;53.49
56568;BME280;42456;49.956;20.004;2023-02-18T10:14:40;98208.53;;;8.84;53.41
56568;BME280;42456;49.956;20.004;2023-02-18T10:17:08;98203.33;;;8.85;53.81
56568;BME280;42456;49.956;20.004;2023-02-18T10:19:39;98202.91;;;8.87;53.70
56568;BME280;42456;49.956;20.004;2023-02-18T10:22:11;98201.55;;;8.91;53.19
56568;BME280;42456;49.956;20.004;2023-02-18T10:24:49;98193.55;;;8.98;52.59
56568;BME280;42456;49.956;20.004;2023-02-18T10:27:29;98184.91;;;9.06;52.77
56568;BME280;42456;49.956;20.004;2023-02-18T10:30:21;98181.70;;;9.13;51.59
56568;BME280;42456;49.956;20.004;2023-02-18T10:32:47;98169.12;;;9.18;52.04
56568;BME280;42456;49.956;20.004;2023-02-18T10:36:11;98168.52;;;9.23;52.03
56568;BME280;42456;49.956;20.004;2023-02-18T10:46:08;98175.51;;;9.15;52.17
56568;BME280;42456;49.956;20.004;2023-02-18T10:48:52;98172.51;;;9.12;52.35
56568;BME280;42456;49.956;20.004;2023-02-18T10:51:27;98171.16;;;9.09;52.34
56568;BME280;42456;49.956;20.004;2023-02-18T10:53:55;98168.46;;;9.06;52.18
56568;BME280;42456;49.956;20.004;2023-02-18T10:56:37;98163.48;;;9.04;52.23
56568;BME280;42456;49.956;20.004;2023-02-18T11:01:40;98165.36;;;9.03;52.72
56568;BME280;42456;49.956;20.004;2023-02-18T11:04:15;98166.46;;;9.02;53.06
56568;BME280;42456;49.956;20.004;2023-02-18T11:06:50;98160.23;;;9.00;53.17
56568;BME280;42456;49.956;20.004;2023-02-18T11:12:12;98147.80;;;8.94;53.57
56568;BME280;42456;49.956;20.004;2023-02-18T11:14:44;98148.02;;;8.94;53.91
56568;BME280;42456;49.956;20.004;2023-02-18T11:17:20;98146.59;;;8.98;54.15
56568;BME280;42456;49.956;20.004;2023-02-18T11:19:53;98148.95;;;9.03;54.40
56568;BME280;42456;49.956;20.004;2023-02-18T11:22:32;98148.92;;;9.07;54.62
56568;BME280;42456;49.956;20.004;2023-02-18T11:25:03;98139.00;;;9.13;54.92
56568;BME280;42456;49.956;20.004;2023-02-18T11:30:30;98134.13;;;9.30;54.48
56568;BME280;42456;49.956;20.004;2023-02-18T11:35:48;98140.13;;;9.41;54.72
56568;BME280;42456;49.956;20.004;2023-02-18T11:38:25;98134.30;;;9.43;54.82
56568;BME280;42456;49.956;20.004;2023-02-18T11:40:56;98130.20;;;9.44;55.12
56568;BME280;42456;49.956;20.004;2023-02-18T11:43:35;98132.23;;;9.41;55.25
56568;BME280;42456;49.956;20.004;2023-02-18T11:46:13;98126.73;;;9.40;56.03
56568;BME280;42456;49.956;20.004;2023-02-18T11:48:40;98128.67;;;9.38;56.62
56568;BME280;42456;49.956;20.004;2023-02-18T11:51:17;98127.13;;;9.36;56.86
56568;BME280;42456;49.956;20.004;2023-02-18T11:56:31;98116.31;;;9.30;57.37
56568;BME280;42456;49.956;20.004;2023-02-18T11:59:00;98106.80;;;9.26;57.57
56568;BME280;42456;49.956;20.004;2023-02-18T12:04:14;98105.50;;;9.13;58.34
56568;BME280;42456;49.956;20.004;2023-02-18T12:07:05;98100.17;;;9.06;58.71
56568;BME280;42456;49.956;20.004;2023-02-18T12:09:42;98095.75;;;8.99;59.56
56568;BME280;42456;49.956;20.004;2023-02-18T12:12:15;98100.21;;;8.96;59.89
56568;BME280;42456;49.956;20.004;2023-02-18T12:14:43;98097.80;;;8.92;59.98
56568;BME280;42456;49.956;20.004;2023-02-18T12:19:59;98096.16;;;8.82;60.60
56568;BME280;42456;49.956;20.004;2023-02-18T12:22:41;98095.82;;;8.79;60.98
56568;BME280;42456;49.956;20.004;2023-02-18T12:33:30;98080.03;;;8.75;62.06
56568;BME280;42456;49.956;20.004;2023-02-18T12:39:02;98073.49;;;8.78;62.74
56568;BME280;42456;49.956;20.004;2023-02-18T12:41:37;98067.30;;;8.80;62.86
56568;BME280;42456;49.956;20.004;2023-02-18T13:01:29;98028.08;;;8.69;64.10
56568;BME280;42456;49.956;20.004;2023-02-18T13:04:23;98024.16;;;8.71;64.70
56568;BME280;42456;49.956;20.004;2023-02-18T13:07:12;98015.02;;;8.72;64.81
56568;BME280;42456;49.956;20.004;2023-02-18T13:12:43;97995.20;;;8.74;65.34
56568;BME280;42456;49.956;20.004;2023-02-18T13:15:22;97985.76;;;8.75;65.51
56568;BME280;42456;49.956;20.004;2023-02-18T13:17:55;97985.67;;;8.79;66.26
56568;BME280;42456;49.956;20.004;2023-02-18T13:22:55;97974.63;;;8.86;66.45
56568;BME280;42456;49.956;20.004;2023-02-18T13:25:23;97967.52;;;8.87;66.26
56568;BME280;42456;49.956;20.004;2023-02-18T13:33:33;97967.92;;;8.64;66.51
56568;BME280;42456;49.956;20.004;2023-02-18T13:41:19;97938.50;;;8.45;67.13
56568;BME280;42456;49.956;20.004;2023-02-18T13:43:47;97929.13;;;8.41;67.03
56568;BME280;42456;49.956;20.004;2023-02-18T13:46:16;97924.43;;;8.34;66.98
56568;BME280;42456;49.956;20.004;2023-02-18T13:49:04;97924.00;;;8.31;67.23
56568;BME280;42456;49.956;20.004;2023-02-18T13:51:49;97926.92;;;8.27;67.33
56568;BME280;42456;49.956;20.004;2023-02-18T13:54:28;97914.08;;;8.24;67.54
56568;BME280;42456;49.956;20.004;2023-02-18T13:57:03;97903.15;;;8.22;67.68
56568;BME280;42456;49.956;20.004;2023-02-18T13:59:41;97895.66;;;8.22;67.96
56568;BME280;42456;49.956;20.004;2023-02-18T14:09:59;97874.15;;;8.10;68.21
56568;BME280;42456;49.956;20.004;2023-02-18T14:14:57;97849.83;;;8.01;68.57
56568;BME280;42456;49.956;20.004;2023-02-18T14:17:34;97840.91;;;7.96;68.36
56568;BME280;42456;49.956;20.004;2023-02-18T14:22:46;97826.08;;;7.87;68.72
56568;BME280;42456;49.956;20.004;2023-02-18T14:27:51;97813.58;;;7.83;68.89
56568;BME280;42456;49.956;20.004;2023-02-18T14:30:25;97800.98;;;7.79;68.94
56568;BME280;42456;49.956;20.004;2023-02-18T14:32:59;97799.86;;;7.76;68.97
56568;BME280;42456;49.956;20.004;2023-02-18T14:35:39;97798.75;;;7.75;69.29
56568;BME280;42456;49.956;20.004;2023-02-18T14:49:31;97758.14;;;7.79;69.90
56568;BME280;42456;49.956;20.004;2023-02-18T14:51:54;97747.16;;;7.80;70.41
56568;BME280;42456;49.956;20.004;2023-02-18T14:54:24;97742.66;;;7.80;70.40
56568;BME280;42456;49.956;20.004;2023-02-18T14:59:19;97738.58;;;7.77;70.93
56568;BME280;42456;49.956;20.004;2023-02-18T15:01:47;97731.88;;;7.74;71.11
56568;BME280;42456;49.956;20.004;2023-02-18T15:04:14;97723.54;;;7.72;71.46
56568;BME280;42456;49.956;20.004;2023-02-18T15:06:41;97719.21;;;7.71;71.68
56568;BME280;42456;49.956;20.004;2023-02-18T15:09:18;97705.77;;;7.69;71.72
56568;BME280;42456;49.956;20.004;2023-02-18T15:11:54;97707.08;;;7.67;72.18
56568;BME280;42456;49.956;20.004;2023-02-18T15:14:43;97708.82;;;7.65;72.38
56568;BME280;42456;49.956;20.004;2023-02-18T15:17:20;97705.73;;;7.62;72.82
56568;BME280;42456;49.956;20.004;2023-02-18T15:19:50;97700.20;;;7.60;73.04
56568;BME280;42456;49.956;20.004;2023-02-18T15:22:20;97695.39;;;7.58;73.44
56568;BME280;42456;49.956;20.004;2023-02-18T15:24:49;97685.70;;;7.57;73.95
56568;BME280;42456;49.956;20.004;2023-02-18T15:27:19;97689.80;;;7.56;74.06
56568;BME280;42456;49.956;20.004;2023-02-18T15:29:52;97680.99;;;7.54;74.45
56568;BME280;42456;49.956;20.004;2023-02-18T15:32:27;97667.88;;;7.51;74.52
56568;BME280;42456;49.956;20.004;2023-02-18T15:39:01;97651.23;;;7.38;75.19
56568;BME280;42456;49.956;20.004;2023-02-18T15:41:30;97640.55;;;7.32;75.50
56568;BME280;42456;49.956;20.004;2023-02-18T15:44:01;97637.69;;;7.29;76.14
56568;BME280;42456;49.956;20.004;2023-02-18T15:46:30;97629.58;;;7.27;76.51
56568;BME280;42456;49.956;20.004;2023-02-18T15:48:59;97626.35;;;7.25;76.78
56568;BME280;42456;49.956;20.004;2023-02-18T15:51:29;97625.41;;;7.22;77.05